PWSweather.com
Personal Weather Stations
Station Observations
WAREHAM1
West Wareham, MA 02576

West Wareham, MA 02576

Lat: 41.7961059, Lon: -70.775612

Elevation: 88

Station Type: Davis Vantage Vue

http://www.gateway2capecod.com

Latest ConditionsUpdated 6:20:16 PM EST Tuesday, Jan 24, 2017
Currently Today's Max Today's Min Today's Average
Temperature 44.1°F6.7°C 45.9°F7.7°C 39.7°F4.3°C 43.4°F6.3°C
Dew Point 43.5°F6.4°C 45.3°F7.4°C 38.7°F3.7°C 42.8°F6.0°C
Winds 2.9 mph NNE4.7 kmh NNE 8.9 mph NE14.3 kmh NE - 4.1 mph 6.6 kmh
Wind Gusts 12.1 mph19.5 kmh 31.1 mph50.1 kmh - -
Humidity 98% 98% 96% 97%
Pressure 29.22 in989.5 mb 29.66 in1004.4 mb 29.21 in989.2 mb -
Precipitation - 0.94 in23.9 mm - -
Hour Temp Dew Point Humidity Winds Wind Gusts Pressure Precip Precip Rate Daily Precip Total
06:20 PM 44.1°F6.7°C 43.5°F6.4°C 98% 2.9 mph NNE4.7 kmh NNE 12.1 mph19.5 kmh 29.22 in989.5 mb 0.01 in0.3 mm 0.06 in1.5 mm 0.94 in23.9 mm
06:10 PM 44.2°F6.8°C 43.7°F6.5°C 98% 2.0 mph NNE3.2 kmh NNE 8.1 mph13.0 kmh 29.22 in989.5 mb 0.00 in0.0 mm 0.00 in0.0 mm 0.93 in23.6 mm
06:00 PM 44.4°F6.9°C 43.9°F6.6°C 98% 2.9 mph NNE4.7 kmh NNE 8.9 mph14.3 kmh 29.22 in989.5 mb 0.00 in0.0 mm 0.00 in0.0 mm 0.93 in23.6 mm
05:50 PM 44.4°F6.9°C 43.9°F6.6°C 98% 2.9 mph NW4.7 kmh NW 8.1 mph13.0 kmh 29.22 in989.5 mb 0.00 in0.0 mm 0.00 in0.0 mm 0.93 in23.6 mm
05:40 PM 44.6°F7.0°C 44.1°F6.7°C 98% 2.9 mph NW4.7 kmh NW 11.0 mph17.7 kmh 29.22 in989.5 mb 0.00 in0.0 mm 0.00 in0.0 mm 0.93 in23.6 mm
05:30 PM 44.8°F7.1°C 44.2°F6.8°C 98% 2.9 mph NNW4.7 kmh NNW 10.0 mph16.1 kmh 29.22 in989.5 mb 0.00 in0.0 mm 0.00 in0.0 mm 0.93 in23.6 mm
05:20 PM 44.8°F7.1°C 44.2°F6.8°C 98% 2.0 mph NW3.2 kmh NW 8.0 mph12.9 kmh 29.22 in989.5 mb 0.00 in0.0 mm 0.00 in0.0 mm 0.93 in23.6 mm
05:10 PM 44.8°F7.1°C 44.2°F6.8°C 98% 2.0 mph NNW3.2 kmh NNW 7.0 mph11.3 kmh 29.22 in989.5 mb 0.00 in0.0 mm 0.00 in0.0 mm 0.93 in23.6 mm
05:00 PM 45.0°F7.2°C 44.4°F6.9°C 98% 2.0 mph NW3.2 kmh NW 6.0 mph9.7 kmh 29.22 in989.5 mb 0.00 in0.0 mm 0.00 in0.0 mm 0.93 in23.6 mm
04:50 PM 45.0°F7.2°C 44.4°F6.9°C 98% 2.9 mph NW4.7 kmh NW 8.1 mph13.0 kmh 29.22 in989.5 mb 0.00 in0.0 mm 0.00 in0.0 mm 0.93 in23.6 mm
04:40 PM 45.0°F7.2°C 44.4°F6.9°C 98% 4.0 mph NNE6.4 kmh NNE 10.1 mph16.3 kmh 29.22 in989.5 mb 0.00 in0.0 mm 0.00 in0.0 mm 0.93 in23.6 mm
04:30 PM 45.0°F7.2°C 44.4°F6.9°C 98% 2.0 mph NNW3.2 kmh NNW 12.1 mph19.5 kmh 29.22 in989.5 mb 0.00 in0.0 mm 0.00 in0.0 mm 0.93 in23.6 mm
04:20 PM 45.0°F7.2°C 44.4°F6.9°C 98% 2.0 mph WNW3.2 kmh WNW 8.1 mph13.0 kmh 29.22 in989.5 mb 0.00 in0.0 mm 0.00 in0.0 mm 0.93 in23.6 mm
04:10 PM 45.0°F7.2°C 44.4°F6.9°C 98% 2.0 mph WNW3.2 kmh WNW 9.0 mph14.5 kmh 29.22 in989.5 mb 0.00 in0.0 mm 0.00 in0.0 mm 0.93 in23.6 mm
04:00 PM 45.0°F7.2°C 44.4°F6.9°C 98% 2.9 mph NE4.7 kmh NE 12.0 mph19.3 kmh 29.21 in989.2 mb 0.00 in0.0 mm 0.00 in0.0 mm 0.93 in23.6 mm
03:50 PM 45.0°F7.2°C 44.4°F6.9°C 98% 0.9 mph N1.4 kmh N 6.0 mph9.7 kmh 29.22 in989.5 mb 0.00 in0.0 mm 0.00 in0.0 mm 0.93 in23.6 mm
03:40 PM 45.0°F7.2°C 44.4°F6.9°C 98% 2.0 mph WNW3.2 kmh WNW 8.0 mph12.9 kmh 29.22 in989.5 mb 0.00 in0.0 mm 0.00 in0.0 mm 0.93 in23.6 mm
03:30 PM 45.1°F7.3°C 44.6°F7.0°C 98% 2.9 mph NNW4.7 kmh NNW 8.9 mph14.3 kmh 29.22 in989.5 mb 0.00 in0.0 mm 0.00 in0.0 mm 0.93 in23.6 mm
03:20 PM 45.1°F7.3°C 44.6°F7.0°C 98% 2.9 mph NW4.7 kmh NW 12.1 mph19.5 kmh 29.23 in989.8 mb 0.01 in0.3 mm 0.00 in0.0 mm 0.93 in23.6 mm
03:10 PM 45.5°F7.5°C 45.0°F7.2°C 98% 2.9 mph NNW4.7 kmh NNW 10.1 mph16.3 kmh 29.23 in989.8 mb 0.01 in0.3 mm 0.00 in0.0 mm 0.93 in23.6 mm
03:00 PM 45.5°F7.5°C 45.0°F7.2°C 98% 2.0 mph NNW3.2 kmh NNW 8.1 mph13.0 kmh 29.23 in989.8 mb 0.01 in0.3 mm 0.00 in0.0 mm 0.93 in23.6 mm
02:50 PM 45.7°F7.6°C 45.1°F7.3°C 98% 2.0 mph ENE3.2 kmh ENE 8.1 mph13.0 kmh 29.23 in989.8 mb 0.01 in0.3 mm 0.00 in0.0 mm 0.93 in23.6 mm
02:40 PM 45.7°F7.6°C 45.1°F7.3°C 98% 2.0 mph WNW3.2 kmh WNW 8.1 mph13.0 kmh 29.24 in990.2 mb 0.01 in0.3 mm 0.00 in0.0 mm 0.93 in23.6 mm
02:30 PM 45.7°F7.6°C 45.1°F7.3°C 98% 2.9 mph NNE4.7 kmh NNE 8.1 mph13.0 kmh 29.23 in989.8 mb 0.01 in0.3 mm 0.06 in1.5 mm 0.93 in23.6 mm
02:20 PM 45.7°F7.6°C 45.1°F7.3°C 98% 2.0 mph WNW3.2 kmh WNW 6.9 mph11.1 kmh 29.24 in990.2 mb 0.00 in0.0 mm 0.00 in0.0 mm 0.92 in23.4 mm
02:10 PM 45.9°F7.7°C 45.3°F7.4°C 98% 0.9 mph NW1.4 kmh NW 8.1 mph13.0 kmh 29.24 in990.2 mb 0.00 in0.0 mm 0.00 in0.0 mm 0.92 in23.4 mm
02:00 PM 45.9°F7.7°C 45.3°F7.4°C 98% 2.0 mph N3.2 kmh N 10.1 mph16.3 kmh 29.23 in989.8 mb 0.00 in0.0 mm 0.00 in0.0 mm 0.92 in23.4 mm
01:50 PM 45.9°F7.7°C 45.3°F7.4°C 98% 2.0 mph ENE3.2 kmh ENE 8.1 mph13.0 kmh 29.23 in989.8 mb 0.00 in0.0 mm 0.00 in0.0 mm 0.92 in23.4 mm
01:40 PM 45.9°F7.7°C 45.3°F7.4°C 98% 2.0 mph W3.2 kmh W 7.0 mph11.3 kmh 29.24 in990.2 mb 0.00 in0.0 mm 0.00 in0.0 mm 0.92 in23.4 mm
01:30 PM 45.9°F7.7°C 45.3°F7.4°C 98% 2.9 mph N4.7 kmh N 10.1 mph16.3 kmh 29.24 in990.2 mb 0.01 in0.3 mm 0.00 in0.0 mm 0.92 in23.4 mm
01:20 PM 45.9°F7.7°C 45.3°F7.4°C 98% 2.0 mph NW3.2 kmh NW 6.0 mph9.7 kmh 29.25 in990.5 mb 0.02 in0.5 mm 0.00 in0.0 mm 0.92 in23.4 mm
01:10 PM 45.9°F7.7°C 45.3°F7.4°C 98% 2.0 mph NE3.2 kmh NE 7.0 mph11.3 kmh 29.26 in990.9 mb 0.03 in0.8 mm 0.00 in0.0 mm 0.92 in23.4 mm
01:00 PM 45.9°F7.7°C 45.3°F7.4°C 98% 2.0 mph NNW3.2 kmh NNW 6.9 mph11.1 kmh 29.26 in990.9 mb 0.03 in0.8 mm 0.00 in0.0 mm 0.92 in23.4 mm
12:50 PM 45.9°F7.7°C 45.3°F7.4°C 98% 2.0 mph NNW3.2 kmh NNW 6.9 mph11.1 kmh 29.26 in990.9 mb 0.03 in0.8 mm 0.00 in0.0 mm 0.92 in23.4 mm
12:40 PM 45.9°F7.7°C 45.3°F7.4°C 98% 2.0 mph NW3.2 kmh NW 6.9 mph11.1 kmh 29.26 in990.9 mb 0.03 in0.8 mm 0.00 in0.0 mm 0.92 in23.4 mm
12:30 PM 45.7°F7.6°C 45.1°F7.3°C 98% 2.0 mph NE3.2 kmh NE 8.1 mph13.0 kmh 29.27 in991.2 mb 0.03 in0.8 mm 0.06 in1.5 mm 0.91 in23.1 mm
12:20 PM 45.7°F7.6°C 45.1°F7.3°C 98% 2.0 mph N3.2 kmh N 8.9 mph14.3 kmh 29.27 in991.2 mb 0.02 in0.5 mm 0.06 in1.5 mm 0.91 in23.1 mm
12:10 PM 45.7°F7.6°C 45.1°F7.3°C 98% 2.0 mph 3.2 kmh 10.1 mph16.3 kmh 29.27 in991.2 mb 0.01 in0.3 mm 0.00 in0.0 mm 0.89 in22.6 mm
12:00 PM 45.7°F7.6°C 45.1°F7.3°C 98% 2.9 mph NE4.7 kmh NE 12.1 mph19.5 kmh 29.27 in991.2 mb 0.01 in0.3 mm 0.00 in0.0 mm 0.89 in22.6 mm
11:50 AM 45.5°F7.5°C 45.0°F7.2°C 98% 2.9 mph NW4.7 kmh NW 10.1 mph16.3 kmh 29.27 in991.2 mb 0.01 in0.3 mm 0.00 in0.0 mm 0.89 in22.6 mm
11:40 AM 45.3°F7.4°C 44.8°F7.1°C 98% 2.0 mph NE3.2 kmh NE 6.9 mph11.1 kmh 29.28 in991.5 mb 0.02 in0.5 mm 0.00 in0.0 mm 0.89 in22.6 mm
11:30 AM 45.3°F7.4°C 44.8°F7.1°C 98% 2.9 mph NNW4.7 kmh NNW 8.9 mph14.3 kmh 29.30 in992.2 mb 0.02 in0.5 mm 0.00 in0.0 mm 0.88 in22.4 mm
11:20 AM 45.3°F7.4°C 44.8°F7.1°C 98% 2.0 mph NW3.2 kmh NW 6.9 mph11.1 kmh 29.30 in992.2 mb 0.02 in0.5 mm 0.00 in0.0 mm 0.88 in22.4 mm
11:10 AM 45.1°F7.3°C 44.6°F7.0°C 98% 2.9 mph NNE4.7 kmh NNE 6.9 mph11.1 kmh 29.31 in992.6 mb 0.02 in0.5 mm 0.00 in0.0 mm 0.88 in22.4 mm
11:00 AM 45.1°F7.3°C 44.6°F7.0°C 98% 2.9 mph NW4.7 kmh NW 10.1 mph16.3 kmh 29.31 in992.6 mb 0.02 in0.5 mm 0.00 in0.0 mm 0.88 in22.4 mm
10:50 AM 45.0°F7.2°C 44.4°F6.9°C 98% 2.9 mph NE4.7 kmh NE 11.0 mph17.7 kmh 29.32 in992.9 mb 0.03 in0.8 mm 0.06 in1.5 mm 0.88 in22.4 mm
10:40 AM 45.0°F7.2°C 44.4°F6.9°C 98% 2.9 mph NW4.7 kmh NW 15.0 mph24.1 kmh 29.32 in992.9 mb 0.02 in0.5 mm 0.00 in0.0 mm 0.88 in22.4 mm
10:30 AM 44.8°F7.1°C 44.2°F6.8°C 98% 2.0 mph N3.2 kmh N 6.0 mph9.7 kmh 29.34 in993.6 mb 0.02 in0.5 mm 0.00 in0.0 mm 0.86 in21.8 mm
10:20 AM 45.0°F7.2°C 44.4°F6.9°C 98% 2.9 mph E4.7 kmh E 8.1 mph13.0 kmh 29.34 in993.6 mb 0.02 in0.5 mm 0.00 in0.0 mm 0.86 in21.8 mm
10:10 AM 45.0°F7.2°C 44.4°F6.9°C 98% 2.9 mph NE4.7 kmh NE 12.1 mph19.5 kmh 29.36 in994.2 mb 0.02 in0.5 mm 0.00 in0.0 mm 0.86 in21.8 mm
10:00 AM 45.0°F7.2°C 44.4°F6.9°C 98% 2.9 mph NW4.7 kmh NW 11.0 mph17.7 kmh 29.35 in993.9 mb 0.02 in0.5 mm 0.01 in0.3 mm 0.86 in21.8 mm
09:50 AM 44.8°F7.1°C 44.2°F6.8°C 98% 2.9 mph NW4.7 kmh NW 12.1 mph19.5 kmh 29.35 in993.9 mb 0.01 in0.3 mm 0.00 in0.0 mm 0.85 in21.6 mm
09:40 AM 44.6°F7.0°C 44.1°F6.7°C 98% 2.9 mph N4.7 kmh N 11.0 mph17.7 kmh 29.35 in993.9 mb 0.01 in0.3 mm 0.06 in1.5 mm 0.85 in21.6 mm
09:30 AM 44.4°F6.9°C 43.9°F6.6°C 98% 2.9 mph NE4.7 kmh NE 11.0 mph17.7 kmh 29.36 in994.2 mb 0.00 in0.0 mm 0.00 in0.0 mm 0.84 in21.3 mm
09:20 AM 44.2°F6.8°C 43.7°F6.5°C 98% 2.9 mph NNE4.7 kmh NNE 13.0 mph20.9 kmh 29.36 in994.2 mb 0.00 in0.0 mm 0.00 in0.0 mm 0.84 in21.3 mm
09:10 AM 44.1°F6.7°C 43.5°F6.4°C 98% 2.9 mph E4.7 kmh E 10.1 mph16.3 kmh 29.36 in994.2 mb 0.00 in0.0 mm 0.00 in0.0 mm 0.84 in21.3 mm
09:00 AM 43.9°F6.6°C 43.3°F6.3°C 98% 4.9 mph NNW7.9 kmh NNW 17.0 mph27.4 kmh 29.37 in994.6 mb 0.00 in0.0 mm 0.00 in0.0 mm 0.84 in21.3 mm
08:50 AM 43.9°F6.6°C 43.3°F6.3°C 98% 4.0 mph NE6.4 kmh NE 11.0 mph17.7 kmh 29.38 in994.9 mb 0.00 in0.0 mm 0.00 in0.0 mm 0.84 in21.3 mm
08:40 AM 43.9°F6.6°C 43.3°F6.3°C 98% 2.9 mph NE4.7 kmh NE 12.1 mph19.5 kmh 29.38 in994.9 mb 0.00 in0.0 mm 0.00 in0.0 mm 0.84 in21.3 mm
08:30 AM 43.7°F6.5°C 43.2°F6.2°C 98% 4.0 mph WNW6.4 kmh WNW 13.0 mph20.9 kmh 29.38 in994.9 mb 0.00 in0.0 mm 0.00 in0.0 mm 0.84 in21.3 mm
08:20 AM 43.5°F6.4°C 43.0°F6.1°C 98% 4.0 mph N6.4 kmh N 16.1 mph25.9 kmh 29.37 in994.6 mb 0.00 in0.0 mm 0.00 in0.0 mm 0.84 in21.3 mm
08:10 AM 43.5°F6.4°C 42.8°F6.0°C 97% 4.0 mph NNW6.4 kmh NNW 13.0 mph20.9 kmh 29.37 in994.6 mb 0.00 in0.0 mm 0.00 in0.0 mm 0.84 in21.3 mm
07:59 AM 43.5°F6.4°C 42.8°F6.0°C 97% 4.0 mph N6.4 kmh N 16.1 mph25.9 kmh 29.37 in994.6 mb 0.01 in0.3 mm 0.00 in0.0 mm 0.84 in21.3 mm
07:49 AM 43.3°F6.3°C 42.6°F5.9°C 97% 4.0 mph N6.4 kmh N 12.1 mph19.5 kmh 29.37 in994.6 mb 0.01 in0.3 mm 0.00 in0.0 mm 0.84 in21.3 mm
07:39 AM 43.3°F6.3°C 42.6°F5.9°C 97% 4.9 mph NNW7.9 kmh NNW 11.0 mph17.7 kmh 29.39 in995.3 mb 0.01 in0.3 mm 0.00 in0.0 mm 0.84 in21.3 mm
07:29 AM 43.3°F6.3°C 42.6°F5.9°C 97% 4.0 mph NNW6.4 kmh NNW 11.0 mph17.7 kmh 29.39 in995.3 mb 0.01 in0.3 mm 0.00 in0.0 mm 0.84 in21.3 mm
07:19 AM 43.3°F6.3°C 42.6°F5.9°C 97% 4.9 mph ENE7.9 kmh ENE 17.0 mph27.4 kmh 29.39 in995.3 mb 0.01 in0.3 mm 0.00 in0.0 mm 0.84 in21.3 mm
07:09 AM 43.2°F6.2°C 42.4°F5.8°C 97% 2.9 mph N4.7 kmh N 12.1 mph19.5 kmh 29.39 in995.3 mb 0.02 in0.5 mm 0.01 in0.3 mm 0.84 in21.3 mm
06:59 AM 43.2°F6.2°C 42.4°F5.8°C 97% 4.0 mph NE6.4 kmh NE 8.9 mph14.3 kmh 29.41 in995.9 mb 0.01 in0.3 mm 0.00 in0.0 mm 0.83 in21.1 mm
06:49 AM 43.0°F6.1°C 42.3°F5.7°C 97% 4.0 mph ENE6.4 kmh ENE 11.0 mph17.7 kmh 29.41 in995.9 mb 0.01 in0.3 mm 0.00 in0.0 mm 0.83 in21.1 mm
06:39 AM 43.0°F6.1°C 42.3°F5.7°C 97% 4.9 mph NNE7.9 kmh NNE 14.1 mph22.7 kmh 29.42 in996.3 mb 0.01 in0.3 mm 0.00 in0.0 mm 0.83 in21.1 mm
06:29 AM 42.8°F6.0°C 42.1°F5.6°C 97% 6.0 mph NW9.7 kmh NW 18.0 mph29.0 kmh 29.42 in996.3 mb 0.01 in0.3 mm 0.00 in0.0 mm 0.83 in21.1 mm
06:19 AM 42.6°F5.9°C 41.9°F5.5°C 97% 4.9 mph W7.9 kmh W 16.1 mph25.9 kmh 29.42 in996.3 mb 0.01 in0.3 mm 0.00 in0.0 mm 0.83 in21.1 mm
06:09 AM 42.4°F5.8°C 41.7°F5.4°C 97% 4.9 mph N7.9 kmh N 17.0 mph27.4 kmh 29.43 in996.6 mb 0.01 in0.3 mm 0.00 in0.0 mm 0.82 in20.8 mm
05:59 AM 42.3°F5.7°C 41.5°F5.3°C 97% 6.0 mph E9.7 kmh E 19.0 mph30.6 kmh 29.43 in996.6 mb 0.01 in0.3 mm 0.00 in0.0 mm 0.82 in20.8 mm
05:49 AM 42.1°F5.6°C 41.4°F5.2°C 97% 6.0 mph E9.7 kmh E 24.0 mph38.6 kmh 29.43 in996.6 mb 0.06 in1.5 mm 0.00 in0.0 mm 0.82 in20.8 mm
05:39 AM 42.1°F5.6°C 41.4°F5.2°C 97% 6.0 mph NE9.7 kmh NE 19.0 mph30.6 kmh 29.44 in997.0 mb 0.11 in2.8 mm 0.00 in0.0 mm 0.82 in20.8 mm
05:29 AM 41.7°F5.4°C 41.0°F5.0°C 97% 6.0 mph NE9.7 kmh NE 17.0 mph27.4 kmh 29.45 in997.3 mb 0.13 in3.3 mm 0.00 in0.0 mm 0.82 in20.8 mm
05:19 AM 41.7°F5.4°C 41.0°F5.0°C 97% 4.9 mph ENE7.9 kmh ENE 15.0 mph24.1 kmh 29.45 in997.3 mb 0.17 in4.3 mm 0.00 in0.0 mm 0.82 in20.8 mm
05:09 AM 41.5°F5.3°C 40.8°F4.9°C 97% 6.0 mph E9.7 kmh E 19.0 mph30.6 kmh 29.45 in997.3 mb 0.18 in4.6 mm 0.00 in0.0 mm 0.81 in20.6 mm
04:59 AM 41.5°F5.3°C 40.8°F4.9°C 97% 6.0 mph NE9.7 kmh NE 21.0 mph33.8 kmh 29.46 in997.6 mb 0.19 in4.8 mm 0.18 in4.6 mm 0.81 in20.6 mm
04:49 AM 41.5°F5.3°C 40.8°F4.9°C 97% 6.0 mph ENE9.7 kmh ENE 15.0 mph24.1 kmh 29.46 in997.6 mb 0.16 in4.1 mm 0.30 in7.6 mm 0.77 in19.6 mm
04:39 AM 41.5°F5.3°C 40.8°F4.9°C 97% 6.9 mph NW11.1 kmh NW 17.0 mph27.4 kmh 29.47 in998.0 mb 0.11 in2.8 mm 0.12 in3.0 mm 0.72 in18.3 mm
04:29 AM 41.4°F5.2°C 40.6°F4.8°C 97% 4.9 mph ENE7.9 kmh ENE 16.1 mph25.9 kmh 29.47 in998.0 mb 0.09 in2.3 mm 0.24 in6.1 mm 0.69 in17.5 mm
04:19 AM 41.2°F5.1°C 40.5°F4.7°C 97% 6.9 mph ENE11.1 kmh ENE 17.9 mph28.8 kmh 29.48 in998.3 mb 0.05 in1.3 mm 0.12 in3.0 mm 0.65 in16.5 mm
04:09 AM 41.2°F5.1°C 40.5°F4.7°C 97% 6.0 mph N9.7 kmh N 15.0 mph24.1 kmh 29.48 in998.3 mb 0.03 in0.8 mm 0.01 in0.3 mm 0.64 in16.3 mm
03:59 AM 41.0°F5.0°C 40.3°F4.6°C 97% 6.0 mph ENE9.7 kmh ENE 19.0 mph30.6 kmh 29.48 in998.3 mb 0.02 in0.5 mm 0.12 in3.0 mm 0.62 in15.7 mm
03:49 AM 40.8°F4.9°C 40.1°F4.5°C 97% 6.9 mph ESE11.1 kmh ESE 16.1 mph25.9 kmh 29.49 in998.6 mb 0.00 in0.0 mm 0.00 in0.0 mm 0.61 in15.5 mm
03:39 AM 40.8°F4.9°C 40.1°F4.5°C 97% 6.9 mph NW11.1 kmh NW -- 29.51 in999.3 mb 0.00 in0.0 mm 0.00 in0.0 mm 0.59 in15.0 mm
03:26 AM 40.6°F4.8°C 39.9°F4.4°C 97% 6.9 mph E11.1 kmh E 19.9 mph32.0 kmh 29.52 in999.7 mb 0.20 in5.1 mm 0.18 in4.6 mm 0.58 in14.7 mm
03:16 AM 40.6°F4.8°C 39.9°F4.4°C 97% 6.9 mph NE11.1 kmh NE 22.0 mph35.4 kmh 29.51 in999.3 mb 0.17 in4.3 mm 0.00 in0.0 mm 0.50 in12.7 mm
03:06 AM 40.6°F4.8°C 39.9°F4.4°C 97% 6.9 mph W11.1 kmh W 17.0 mph27.4 kmh 29.52 in999.7 mb 0.18 in4.6 mm 0.00 in0.0 mm 0.44 in11.2 mm
02:56 AM 40.6°F4.8°C 39.9°F4.4°C 97% 8.1 mph E13.0 kmh E 31.1 mph50.1 kmh 29.52 in999.7 mb 0.21 in5.3 mm 0.00 in0.0 mm 0.43 in10.9 mm
02:46 AM 40.5°F4.7°C 39.7°F4.3°C 97% 6.0 mph NNE9.7 kmh NNE 26.0 mph41.8 kmh 29.53 in1000.0 mb 0.23 in5.8 mm 0.00 in0.0 mm 0.41 in10.4 mm
02:36 AM 40.5°F4.7°C 39.7°F4.3°C 97% 6.0 mph NE9.7 kmh NE 21.0 mph33.8 kmh 29.55 in1000.7 mb 0.24 in6.1 mm 0.00 in0.0 mm 0.40 in10.2 mm
02:26 AM 40.3°F4.6°C 39.6°F4.2°C 97% 6.0 mph SW9.7 kmh SW 17.0 mph27.4 kmh 29.55 in1000.7 mb 0.24 in6.1 mm 0.12 in3.0 mm 0.38 in9.7 mm
02:16 AM 40.3°F4.6°C 39.6°F4.2°C 97% 6.0 mph E9.7 kmh E 19.9 mph32.0 kmh 29.57 in1001.4 mb 0.22 in5.6 mm 0.30 in7.6 mm 0.33 in8.4 mm
02:06 AM 40.3°F4.6°C 39.6°F4.2°C 97% 4.9 mph N7.9 kmh N 19.9 mph32.0 kmh 29.58 in1001.7 mb 0.17 in4.3 mm 0.04 in1.0 mm 0.26 in6.6 mm
01:56 AM 40.1°F4.5°C 39.4°F4.1°C 97% 6.9 mph NNE11.1 kmh NNE 25.1 mph40.4 kmh 29.58 in1001.7 mb 0.14 in3.6 mm 0.18 in4.6 mm 0.22 in5.6 mm
01:46 AM 39.9°F4.4°C 39.2°F4.0°C 97% 8.1 mph NNE13.0 kmh NNE 17.0 mph27.4 kmh 29.59 in1002.0 mb 0.11 in2.8 mm 0.06 in1.5 mm 0.18 in4.6 mm
01:36 AM 39.9°F4.4°C 39.2°F4.0°C 97% 6.0 mph E9.7 kmh E 15.0 mph24.1 kmh 29.59 in1002.0 mb 0.10 in2.5 mm 0.00 in0.0 mm 0.16 in4.1 mm
01:26 AM 40.1°F4.5°C 39.4°F4.1°C 97% 6.9 mph NE11.1 kmh NE 17.9 mph28.8 kmh 29.60 in1002.4 mb 0.10 in2.5 mm 0.18 in4.6 mm 0.14 in3.6 mm
01:16 AM 39.9°F4.4°C 39.2°F4.0°C 97% 8.1 mph WNW13.0 kmh WNW 21.0 mph33.8 kmh 29.60 in1002.4 mb 0.07 in1.8 mm 0.00 in0.0 mm 0.11 in2.8 mm
01:06 AM 39.9°F4.4°C 38.8°F3.8°C 96% 8.1 mph NNE13.0 kmh NNE 19.9 mph32.0 kmh 29.62 in1003.0 mb 0.07 in1.8 mm 0.00 in0.0 mm 0.09 in2.3 mm
12:56 AM 39.9°F4.4°C 38.8°F3.8°C 96% 6.9 mph E11.1 kmh E 21.9 mph35.2 kmh 29.62 in1003.0 mb 0.09 in2.3 mm 0.00 in0.0 mm 0.08 in2.0 mm
12:46 AM 39.7°F4.3°C 38.7°F3.7°C 96% 6.9 mph ENE11.1 kmh ENE 17.9 mph28.8 kmh 29.63 in1003.4 mb 0.13 in3.3 mm 0.00 in0.0 mm 0.07 in1.8 mm
12:36 AM 39.7°F4.3°C 38.7°F3.7°C 96% 8.9 mph NE14.3 kmh NE 26.0 mph41.8 kmh 29.64 in1003.7 mb 0.15 in3.8 mm 0.00 in0.0 mm 0.06 in1.5 mm
12:26 AM 39.7°F4.3°C 38.7°F3.7°C 96% 8.9 mph NE14.3 kmh NE 17.9 mph28.8 kmh 29.64 in1003.7 mb 0.15 in3.8 mm 0.00 in0.0 mm 0.04 in1.0 mm
12:16 AM 39.7°F4.3°C 38.7°F3.7°C 96% 6.9 mph NE11.1 kmh NE 21.0 mph33.8 kmh 29.65 in1004.1 mb 0.16 in4.1 mm 0.00 in0.0 mm 0.03 in0.8 mm
12:06 AM 39.7°F4.3°C 38.7°F3.7°C 96% 6.9 mph ENE11.1 kmh ENE 19.0 mph30.6 kmh 29.66 in1004.4 mb 0.18 in4.6 mm 1.80 in45.7 mm 0.02 in0.5 mm